Terminal Aerodrome Forecast
Issued by NWS

Home | Current Version | Previous Version | Graphics & Text | Print | Product List | Glossary On
Versions: 1 2 3 4 5 6 7 8 9 10 11 12 13 14 15 16 17 18 19 20 21
000
FTUS43 KLSX 022323
TAFSUS
TAF
KSUS 022323Z 0300/0324 02005KT P6SM BKN035 OVC200
     FM030500 01003KT 4SM BR FEW015 BKN100
     FM030900 02004KT 3SM BR OVC012
      TEMPO 0309/0313 1 1/2SM BR OVC006
     FM031600 02005KT P6SM SCT025 BKN120=

USA.gov is the U.S. government's official web portal to all federal, state and local government web resources and services.